Terminal Aerodrome Forecast
Issued by NWS

Home | Current Version | Previous Version | Text Only | Print | Product List | Glossary On
Versions: 1 2 3 4 5 6 7 8 9 10 11 12 13
000
FTUS46 KPDT 230500
TAFYKM
TAF
KYKM 230525Z 2306/2406 28006KT P6SM VCSH BKN080
     FM231200 26008KT P6SM VCTS BKN070CB
     FM231800 28010KT P6SM VCSH BKN070
     FM232000 25014G20KT P6SM VCSH BKN100
     FM240200 28017G24KT P6SM SCT120=

USA.gov is the U.S. government's official web portal to all federal, state and local government web resources and services.